Lincolnville Center, Maine
Current Conditions -  °F | °C
As of 7:15 AM on Sunday 23 Nov 2014 (Local Time) from KRKD Reporting Station
Overcast Overcast  
Wind Chill: 37°   Ceiling: 8000
Heat Index: 41°   Visibility: 10mi
Dew Point: 30°   Wind: 6mph
Humidity: 65%   Direction: 240°WSW
Pressure: 30.02"   Gusts: NA
Location:  44.3°N, 69.11°W
Report Text: KRKD 231215Z AUTO 24005KT 10SM OVC080 05/M01 A3002 RMK AO1
Loading
Personal Weather Stations






























Interactive Weather Map New forecast layout! Learn more

10-Day Weather Forecast

Advertisements
Track Severe Weather on mobile